»·PEaware :: AAL1187 KLAS-KSNA

AAL1187 :: KLAS-KSNA

FLIGHT INFORMATION

Flight Status: Arrived
Operator:
American Airlines
More flights by this operator :: More flights under this callsign
Pilot: Anonymous 12254 (12254)
Aircraft: BOEING 737-800
(B738)
More flights by this aircraft type
Origin: KLAS McCarran Intl
United States
Destination: KSNA John Wayne-Orange Co
United States
More flights between these airports :: More routes between these airports
Route: +MCCRN5 HEC KAYOH7
File this flight plan on PilotEdge
Remarks:
Altitude:
(Current/Filed)
21,000ft
Speed:
(Current/Filed)
300kts
Departed: 26-Apr-19 07:02 PM
Arrived: 26-Apr-19 07:48 PM
Distance/Time
Traveled:
197nm/0:46
Distance/Time
To Go:
Arrived

Flight Plot

Page will automatically refresh every two minutes.

Flight plan parsing failed; only flown route is shown


Map Options




Map Legend


Flown Route
Filed Route
Departure Airport
Arrival Airport
Navaid (VOR, NDB)
Fix

Horizontal Profiles

Position Reports

Time Latitude Longitude Heading Altitude Ground
Speed
26-Apr-19 18:38 36.079622 -115.147497 55 2100ft 0kts
26-Apr-19 18:39 36.079622 -115.147497 55 2100ft 0kts
26-Apr-19 18:40 36.079622 -115.147497 55 2100ft 0kts
26-Apr-19 18:41 36.079622 -115.147497 55 2100ft 0kts
26-Apr-19 18:42 36.079622 -115.147497 55 2100ft 0kts
26-Apr-19 18:43 36.079622 -115.147497 55 2100ft 0kts
26-Apr-19 18:44 36.079622 -115.147497 55 2100ft 0kts
26-Apr-19 18:45 36.079622 -115.147497 55 2100ft 0kts
26-Apr-19 18:46 36.079622 -115.147497 55 2100ft 0kts
26-Apr-19 18:47 36.079622 -115.147497 55 2100ft 0kts
26-Apr-19 18:48 36.079622 -115.147497 55 2100ft 0kts
26-Apr-19 18:50 36.079622 -115.147497 55 2100ft 0kts
26-Apr-19 18:51 36.079622 -115.147497 55 2100ft 0kts
26-Apr-19 18:52 36.079381 -115.147865 353 2102ft 2kts
26-Apr-19 18:53 36.079357 -115.147860 341 2102ft 0kts
26-Apr-19 18:54 36.079357 -115.147860 341 2102ft 0kts
26-Apr-19 18:55 36.079223 -115.147561 146 2102ft 9kts
26-Apr-19 18:56 36.078263 -115.138301 92 2075ft 34kts
26-Apr-19 18:57 36.078278 -115.127312 89 2044ft 37kts
26-Apr-19 18:58 36.077538 -115.121514 141 2037ft 0kts
26-Apr-19 18:59 36.077538 -115.121514 141 2037ft 0kts
26-Apr-19 19:00 36.077538 -115.121514 141 2037ft 0kts
26-Apr-19 19:01 36.077532 -115.121508 141 2037ft 1kts
26-Apr-19 19:02 36.076397 -115.128214 269 2050ft 116kts
26-Apr-19 19:03 36.078049 -115.196510 268 4840ft 232kts
26-Apr-19 19:04 36.033641 -115.248012 202 7015ft 249kts
26-Apr-19 19:05 35.968950 -115.279436 202 7027ft 248kts
26-Apr-19 19:06 35.900632 -115.312560 202 8572ft 283kts
26-Apr-19 19:07 35.826291 -115.348647 203 10537ft 290kts
26-Apr-19 19:08 35.749969 -115.385649 203 12557ft 298kts
26-Apr-19 19:09 35.671930 -115.423420 203 14564ft 305kts
26-Apr-19 19:09 35.605258 -115.455645 203 16233ft 312kts
26-Apr-19 19:11 35.515709 -115.512832 230 18587ft 317kts
26-Apr-19 19:12 35.455754 -115.594447 228 20023ft 325kts
26-Apr-19 19:12 35.404683 -115.662591 228 20037ft 323kts
26-Apr-19 19:13 35.343549 -115.743963 228 20041ft 323kts
26-Apr-19 19:14 35.274722 -115.835353 228 20048ft 390kts
26-Apr-19 19:16 35.189042 -115.948767 228 20054ft 388kts
26-Apr-19 19:16 35.127655 -116.029812 228 20054ft 388kts
26-Apr-19 19:17 35.053972 -116.126809 228 20053ft 388kts
26-Apr-19 19:18 34.979735 -116.224165 228 20065ft 395kts
26-Apr-19 19:19 34.903880 -116.323501 229 19896ft 404kts
26-Apr-19 19:20 34.827360 -116.423368 228 19056ft 402kts
26-Apr-19 19:21 34.749763 -116.521137 227 18100ft 397kts
26-Apr-19 19:22 34.675146 -116.619508 227 17389ft 395kts
26-Apr-19 19:23 34.598319 -116.712737 226 16633ft 392kts
26-Apr-19 19:24 34.525263 -116.800876 226 15585ft 352kts
26-Apr-19 19:25 34.455507 -116.884831 225 14583ft 350kts
26-Apr-19 19:26 34.386746 -116.967353 226 13576ft 342kts
26-Apr-19 19:27 34.320048 -117.047227 226 13144ft 334kts
26-Apr-19 19:28 34.247579 -117.115019 192 13179ft 337kts
26-Apr-19 19:29 34.155106 -117.129362 188 13153ft 314kts
26-Apr-19 19:30 34.069399 -117.142096 188 11757ft 310kts
26-Apr-19 19:31 33.985902 -117.154431 188 11170ft 298kts
26-Apr-19 19:32 33.906144 -117.166185 189 11164ft 266kts
26-Apr-19 19:33 33.834264 -117.176797 188 11172ft 270kts
26-Apr-19 19:34 33.778134 -117.218834 267 11197ft 259kts
26-Apr-19 19:35 33.777743 -117.306804 271 10329ft 264kts
26-Apr-19 19:36 33.778576 -117.395664 271 8822ft 265kts
26-Apr-19 19:37 33.789386 -117.482633 292 7312ft 264kts
26-Apr-19 19:38 33.821359 -117.561409 302 6146ft 250kts
26-Apr-19 19:39 33.856792 -117.631351 302 5168ft 240kts
26-Apr-19 19:40 33.888111 -117.693949 301 5140ft 201kts
26-Apr-19 19:41 33.909146 -117.754381 243 4213ft 200kts
26-Apr-19 19:42 33.858501 -117.769328 181 3290ft 200kts
26-Apr-19 19:43 33.809223 -117.782593 215 2876ft 178kts
26-Apr-19 19:44 33.764563 -117.812475 208 1926ft 185kts
26-Apr-19 19:45 33.719405 -117.841136 208 965ft 171kts
26-Apr-19 19:46 33.682402 -117.864601 207 114ft 126kts
26-Apr-19 19:47 33.669240 -117.871706 134 64ft 12kts
26-Apr-19 19:48 33.673598 -117.866856 34 64ft 32kts

Navigation Log

Ident Type
Flight plan parsing failed, navigation log unavailable